createdAt,value
2017-09-28T00:00:05.264Z,20.8
2017-09-28T00:02:05.192Z,20.8
2017-09-28T00:04:07.386Z,20.8
2017-09-28T00:06:08.219Z,20.8
2017-09-28T00:08:04.984Z,20.8
2017-09-28T00:10:04.661Z,20.8
2017-09-28T00:12:05.333Z,20.8
2017-09-28T00:14:05.169Z,20.8
2017-09-28T00:16:05.359Z,20.8
2017-09-28T00:18:05.594Z,20.8
2017-09-28T00:20:05.544Z,20.8
2017-09-28T00:22:07.833Z,20.7
2017-09-28T00:24:12.682Z,20.8
2017-09-28T00:26:05.408Z,20.7
2017-09-28T00:28:09.686Z,20.7
2017-09-28T00:30:05.444Z,20.7
2017-09-28T00:32:05.333Z,20.7
2017-09-28T00:34:05.206Z,20.8
2017-09-28T00:36:04.857Z,20.8
2017-09-28T00:38:05.740Z,20.7
2017-09-28T00:40:05.643Z,20.8
2017-09-28T00:42:05.371Z,20.7
2017-09-28T00:44:07.826Z,20.8
2017-09-28T00:46:04.686Z,20.7
2017-09-28T00:48:05.377Z,20.7
2017-09-28T00:50:05.257Z,20.7
2017-09-28T00:52:08.006Z,20.7
2017-09-28T00:54:07.305Z,20.7
2017-09-28T00:56:05.061Z,20.7
2017-09-28T00:58:09.980Z,20.7
2017-09-28T01:00:04.699Z,20.7
2017-09-28T01:02:05.489Z,20.7
2017-09-28T01:04:05.183Z,20.7
2017-09-28T01:06:14.996Z,20.7
2017-09-28T01:08:04.668Z,20.7
2017-09-28T01:10:05.374Z,20.7
2017-09-28T01:12:05.141Z,20.7
2017-09-28T01:14:05.234Z,20.7
2017-09-28T01:16:05.016Z,20.7
2017-09-28T01:18:04.969Z,20.7
2017-09-28T01:20:04.796Z,20.7
2017-09-28T01:22:05.878Z,20.7
2017-09-28T01:24:08.124Z,20.7
2017-09-28T01:26:07.613Z,20.7
2017-09-28T01:28:05.348Z,20.7
2017-09-28T01:30:05.039Z,20.7
2017-09-28T01:32:04.773Z,20.7
2017-09-28T01:34:04.966Z,20.7
2017-09-28T01:36:04.686Z,20.7
2017-09-28T01:38:05.555Z,20.7
2017-09-28T01:40:04.825Z,20.7
2017-09-28T01:42:05.055Z,20.7
2017-09-28T01:44:07.563Z,20.7
2017-09-28T01:46:05.248Z,20.7
2017-09-28T01:48:05.053Z,20.7
2017-09-28T01:50:05.495Z,20.7
2017-09-28T01:52:05.186Z,20.7
2017-09-28T01:54:05.559Z,20.7
2017-09-28T01:56:05.508Z,20.7
2017-09-28T01:58:05.222Z,20.7
2017-09-28T02:00:07.482Z,20.7
2017-09-28T02:02:05.272Z,20.7
2017-09-28T02:04:10.093Z,20.7
2017-09-28T02:06:07.362Z,20.7
2017-09-28T02:08:05.204Z,20.7
2017-09-28T02:10:07.739Z,20.7
2017-09-28T02:12:05.444Z,20.7
2017-09-28T02:14:07.837Z,20.7
2017-09-28T02:16:05.612Z,20.7
2017-09-28T02:18:12.639Z,20.7
2017-09-28T02:20:07.497Z,20.7
2017-09-28T02:22:05.193Z,20.7
2017-09-28T02:24:07.407Z,20.7
2017-09-28T02:26:05.404Z,20.7
2017-09-28T02:28:12.717Z,20.7
2017-09-28T02:30:04.928Z,20.7
2017-09-28T02:32:05.261Z,20.7
2017-09-28T02:34:04.996Z,20.7
2017-09-28T02:36:04.825Z,20.7
2017-09-28T02:38:07.738Z,20.7
2017-09-28T02:40:05.522Z,20.7
2017-09-28T02:42:05.393Z,20.7
2017-09-28T02:44:04.880Z,20.7
2017-09-28T02:46:05.599Z,20.7
2017-09-28T02:48:05.272Z,20.7
2017-09-28T02:50:05.784Z,20.7
2017-09-28T02:52:10.156Z,20.7
2017-09-28T02:54:07.384Z,20.7
2017-09-28T02:56:07.769Z,20.7
2017-09-28T02:58:05.695Z,20.7
2017-09-28T03:00:05.553Z,20.7
2017-09-28T03:02:13.104Z,20.7
2017-09-28T03:04:04.843Z,20.7
2017-09-28T03:06:05.077Z,20.7
2017-09-28T03:08:04.984Z,20.7
2017-09-28T03:10:05.216Z,20.7
2017-09-28T03:12:04.923Z,20.7
2017-09-28T03:14:05.755Z,20.7
2017-09-28T03:16:05.444Z,20.7
2017-09-28T03:18:05.383Z,20.7
2017-09-28T03:20:07.636Z,20.7
2017-09-28T03:22:05.358Z,20.7
2017-09-28T03:24:05.045Z,20.7
2017-09-28T03:26:04.916Z,20.7
2017-09-28T03:28:08.141Z,20.7
2017-09-28T03:30:07.491Z,20.7
2017-09-28T03:32:07.899Z,20.7
2017-09-28T03:34:08.152Z,20.7
2017-09-28T03:36:05.354Z,20.7
2017-09-28T03:38:07.636Z,20.7
2017-09-28T03:40:05.366Z,20.7
2017-09-28T03:42:05.091Z,20.7
2017-09-28T03:44:04.958Z,20.7
2017-09-28T03:46:04.866Z,20.7
2017-09-28T03:48:05.130Z,20.7
2017-09-28T03:50:10.574Z,20.7
2017-09-28T03:52:05.301Z,20.7
2017-09-28T03:54:07.562Z,20.7
2017-09-28T03:56:05.414Z,20.7
2017-09-28T03:58:05.166Z,20.7
2017-09-28T04:00:05.437Z,20.7
2017-09-28T04:02:05.262Z,20.7
2017-09-28T04:04:04.981Z,20.7
2017-09-28T04:06:05.235Z,20.7
2017-09-28T04:08:04.979Z,20.7
2017-09-28T04:10:04.678Z,20.7
2017-09-28T04:12:05.387Z,20.7
2017-09-28T04:14:05.349Z,20.7
2017-09-28T04:16:05.081Z,20.7
2017-09-28T04:18:05.048Z,20.7
2017-09-28T04:20:04.872Z,20.7
2017-09-28T04:22:05.615Z,20.7
2017-09-28T04:24:05.373Z,20.7
2017-09-28T04:26:05.300Z,20.7
2017-09-28T04:28:10.169Z,20.7
2017-09-28T04:30:04.888Z,20.7
2017-09-28T04:32:10.435Z,20.7
2017-09-28T04:34:07.953Z,20.6
2017-09-28T04:36:05.544Z,20.7
2017-09-28T04:38:04.993Z,20.7
2017-09-28T04:40:04.948Z,20.6
2017-09-28T04:42:04.643Z,20.7
2017-09-28T04:44:05.622Z,20.7
2017-09-28T04:46:07.879Z,20.6
2017-09-28T04:48:05.585Z,20.7
2017-09-28T04:50:05.406Z,20.6
2017-09-28T04:52:04.644Z,20.7
2017-09-28T04:54:07.875Z,20.6
2017-09-28T04:56:05.578Z,20.6
2017-09-28T04:58:04.843Z,20.6
2017-09-28T05:00:05.536Z,20.6
2017-09-28T05:02:05.371Z,20.6
2017-09-28T05:04:05.578Z,20.6
2017-09-28T05:06:10.545Z,20.6
2017-09-28T05:08:05.508Z,20.6
2017-09-28T05:10:05.228Z,20.6
2017-09-28T05:12:04.982Z,20.6
2017-09-28T05:14:07.847Z,20.6
2017-09-28T05:16:05.608Z,20.6
2017-09-28T05:18:08.080Z,20.6
2017-09-28T05:20:04.819Z,20.6
2017-09-28T05:22:05.676Z,20.6
2017-09-28T05:24:05.324Z,20.6
2017-09-28T05:26:05.168Z,20.6
2017-09-28T05:28:04.868Z,20.6
2017-09-28T05:30:05.579Z,20.6
2017-09-28T05:32:15.682Z,20.6
2017-09-28T05:34:10.473Z,20.6
2017-09-28T05:36:05.198Z,20.6
2017-09-28T05:38:05.278Z,20.6
2017-09-28T05:40:05.042Z,20.6
2017-09-28T05:42:04.725Z,20.6
2017-09-28T05:44:07.963Z,20.7
2017-09-28T05:46:07.155Z,20.8
2017-09-28T05:48:07.365Z,20.8
2017-09-28T05:50:10.157Z,20.7
2017-09-28T05:52:04.913Z,20.8
2017-09-28T05:54:05.636Z,20.8
2017-09-28T05:56:05.320Z,20.7
2017-09-28T05:58:05.023Z,20.8
2017-09-28T06:00:04.683Z,20.8
2017-09-28T06:02:05.406Z,20.8
2017-09-28T06:04:06.309Z,20.8
2017-09-28T06:06:05.102Z,20.8
2017-09-28T06:08:05.353Z,20.8
2017-09-28T06:10:05.262Z,20.8
2017-09-28T06:12:05.006Z,20.8
2017-09-28T06:14:04.841Z,20.8
2017-09-28T06:16:05.535Z,20.8
2017-09-28T06:18:05.411Z,20.8
2017-09-28T06:20:06.985Z,20.8
2017-09-28T06:22:06.244Z,20.8
2017-09-28T06:24:04.816Z,20.8
2017-09-28T06:26:05.775Z,20.8
2017-09-28T06:28:08.042Z,20.8
2017-09-28T06:30:04.799Z,20.8
2017-09-28T06:32:05.494Z,20.8
2017-09-28T06:34:05.208Z,20.8
2017-09-28T06:36:08.425Z,20.9
2017-09-28T06:38:09.684Z,20.9
2017-09-28T06:40:07.247Z,21
2017-09-28T06:42:10.702Z,20.9
2017-09-28T06:44:14.710Z,21
2017-09-28T06:46:05.730Z,21
2017-09-28T06:48:07.954Z,21.1
2017-09-28T06:50:05.046Z,21.1
2017-09-28T06:52:07.281Z,21.1
2017-09-28T06:54:04.956Z,21.1
2017-09-28T06:56:10.211Z,21.1
2017-09-28T06:58:05.279Z,21.1
2017-09-28T07:00:07.723Z,21.1
2017-09-28T07:02:05.647Z,21.1
2017-09-28T07:04:07.334Z,21.1
2017-09-28T07:06:05.239Z,21
2017-09-28T07:08:07.829Z,21.1
2017-09-28T07:10:08.121Z,21
2017-09-28T07:12:09.921Z,21
2017-09-28T07:14:09.638Z,21
2017-09-28T07:16:04.895Z,21
2017-09-28T07:18:07.171Z,21.1
2017-09-28T07:20:05.693Z,21.1
2017-09-28T07:22:05.366Z,21.1
2017-09-28T07:24:15.187Z,21
2017-09-28T07:26:04.921Z,21
2017-09-28T07:28:04.610Z,21.1
2017-09-28T07:30:05.485Z,21.1
2017-09-28T07:32:05.424Z,21.1
2017-09-28T07:34:04.681Z,21.1
2017-09-28T07:36:04.884Z,21.1
2017-09-28T07:38:05.914Z,21.1
2017-09-28T07:40:09.731Z,21.1
2017-09-28T07:42:10.501Z,21.1
2017-09-28T07:44:04.957Z,21.1
2017-09-28T07:46:04.825Z,21.1
2017-09-28T07:48:05.012Z,21.1
2017-09-28T07:50:05.019Z,21.1
2017-09-28T07:52:04.777Z,21.1
2017-09-28T07:54:05.530Z,21.1
2017-09-28T07:56:05.377Z,21.1
2017-09-28T07:58:07.553Z,21
2017-09-28T08:00:07.750Z,21.1
2017-09-28T08:02:10.881Z,21
2017-09-28T08:04:05.607Z,21
2017-09-28T08:06:07.841Z,21
2017-09-28T08:08:05.703Z,21
2017-09-28T08:10:07.912Z,21
2017-09-28T08:12:05.716Z,21
2017-09-28T08:14:08.145Z,21
2017-09-28T08:16:04.805Z,21
2017-09-28T08:18:04.852Z,21
2017-09-28T08:20:07.183Z,21
2017-09-28T08:22:09.917Z,21
2017-09-28T08:24:07.193Z,21
2017-09-28T08:26:05.069Z,21
2017-09-28T08:28:04.746Z,21
2017-09-28T08:30:05.050Z,21
2017-09-28T08:32:05.585Z,21
2017-09-28T08:34:05.393Z,21
2017-09-28T08:36:10.198Z,21
2017-09-28T08:38:07.571Z,21
2017-09-28T08:40:05.251Z,21
2017-09-28T08:42:10.031Z,21
2017-09-28T08:44:04.839Z,21
2017-09-28T08:46:05.109Z,21
2017-09-28T08:48:04.902Z,21
2017-09-28T08:50:04.981Z,21
2017-09-28T08:52:05.305Z,21
2017-09-28T08:54:05.574Z,21
2017-09-28T08:56:05.541Z,21
2017-09-28T08:58:05.355Z,21
2017-09-28T09:00:07.567Z,21
2017-09-28T09:02:07.907Z,21
2017-09-28T09:04:05.587Z,21
2017-09-28T09:06:05.449Z,20.9
2017-09-28T09:08:05.314Z,20.9
2017-09-28T09:10:05.083Z,20.9
2017-09-28T09:12:04.872Z,20.9
2017-09-28T09:14:05.896Z,20.9
2017-09-28T09:16:04.680Z,20.9
2017-09-28T09:18:05.574Z,20.9
2017-09-28T09:20:10.358Z,20.9
2017-09-28T12:06:12.412Z,22.4
2017-09-28T12:08:05.518Z,22.4
2017-09-28T12:10:07.301Z,22.3
2017-09-28T12:12:05.751Z,22.3
2017-09-28T12:14:13.054Z,22.2
2017-09-28T12:16:04.847Z,22.2
2017-09-28T12:18:07.804Z,22.2
2017-09-28T12:20:08.090Z,22.2
2017-09-28T12:22:10.083Z,22.2
2017-09-28T12:24:10.144Z,22.1
2017-09-28T12:26:04.897Z,22.1
2017-09-28T12:28:05.678Z,22.2
2017-09-28T12:30:05.582Z,22.2
2017-09-28T12:32:05.346Z,22.1
2017-09-28T12:34:05.086Z,22.1
2017-09-28T12:36:05.120Z,22.1
2017-09-28T12:38:07.763Z,22.1
2017-09-28T12:40:04.998Z,22
2017-09-28T12:42:04.725Z,22.1
2017-09-28T12:44:09.993Z,22.1
2017-09-28T12:46:04.767Z,22.1
2017-09-28T12:48:05.788Z,22.1
2017-09-28T12:50:05.493Z,22.1
2017-09-28T12:52:08.030Z,22.1
2017-09-28T12:54:04.776Z,22.1
2017-09-28T12:56:05.524Z,22.1
2017-09-28T12:58:07.706Z,22.1
2017-09-28T13:00:05.627Z,22.1
2017-09-28T13:02:07.841Z,22.1
2017-09-28T13:04:05.512Z,22
2017-09-28T13:06:05.595Z,22
2017-09-28T13:08:05.360Z,22
2017-09-28T13:10:05.427Z,22
2017-09-28T13:12:05.154Z,22
2017-09-28T13:14:04.862Z,22
2017-09-28T13:16:05.149Z,22
2017-09-28T13:18:05.090Z,21.9
2017-09-28T13:20:04.814Z,21.9
2017-09-28T13:22:04.842Z,21.9
2017-09-28T13:24:05.195Z,22
2017-09-28T13:26:04.936Z,22
2017-09-28T13:28:05.214Z,22
2017-09-28T13:30:05.130Z,21.9
2017-09-28T13:32:04.993Z,22
2017-09-28T13:34:07.273Z,21.9
2017-09-28T13:36:05.201Z,21.9
2017-09-28T13:38:04.943Z,21.9
2017-09-28T13:40:04.655Z,22
2017-09-28T13:42:07.831Z,22
2017-09-28T13:44:05.618Z,21.9
2017-09-28T13:46:05.375Z,21.9
2017-09-28T13:48:05.111Z,21.9
2017-09-28T13:50:04.887Z,21.9
2017-09-28T13:52:05.607Z,21.9
2017-09-28T13:54:10.407Z,21.8
2017-09-28T13:56:05.141Z,21.8
2017-09-28T13:58:04.889Z,21.9
2017-09-28T14:00:05.197Z,21.9
2017-09-28T14:02:05.030Z,21.8
2017-09-28T14:04:04.853Z,21.9
2017-09-28T14:06:07.676Z,21.8
2017-09-28T14:08:05.357Z,21.8
2017-09-28T14:10:05.593Z,21.8
2017-09-28T14:12:10.429Z,21.8
2017-09-28T14:14:05.347Z,21.8
2017-09-28T14:16:05.190Z,21.8
2017-09-28T14:18:05.159Z,21.9
2017-09-28T14:20:04.889Z,21.8
2017-09-28T14:22:10.688Z,21.8
2017-09-28T14:24:04.900Z,21.8
2017-09-28T14:26:13.182Z,21.8
2017-09-28T14:28:04.887Z,21.8
2017-09-28T14:30:05.772Z,21.9
2017-09-28T14:32:05.006Z,21.8
2017-09-28T14:34:04.783Z,21.8
2017-09-28T14:36:06.034Z,21.8
2017-09-28T14:38:04.816Z,21.8
2017-09-28T14:40:05.552Z,21.8
2017-09-28T14:42:05.374Z,21.8
2017-09-28T14:44:05.069Z,21.8
2017-09-28T14:46:07.722Z,21.8
2017-09-28T14:48:05.041Z,21.7
2017-09-28T14:50:07.266Z,21.8
2017-09-28T14:52:04.956Z,21.8
2017-09-28T14:54:05.453Z,21.8
2017-09-28T14:56:12.806Z,21.7
2017-09-28T14:58:05.580Z,21.7
2017-09-28T15:00:05.326Z,21.7
2017-09-28T15:02:12.854Z,21.7
2017-09-28T15:04:10.877Z,21.8
2017-09-28T15:06:05.529Z,21.8
2017-09-28T15:08:05.316Z,21.7
2017-09-28T15:10:05.199Z,21.7
2017-09-28T15:12:07.930Z,21.7
2017-09-28T15:14:04.626Z,21.7
2017-09-28T15:16:05.308Z,21.7
2017-09-28T15:18:18.104Z,21.7
2017-09-28T15:20:04.808Z,21.7
2017-09-28T15:22:04.820Z,21.7
2017-09-28T15:24:05.042Z,21.7
2017-09-28T15:26:04.716Z,21.7
2017-09-28T15:28:10.456Z,21.7
2017-09-28T15:30:05.262Z,21.7
2017-09-28T15:32:05.006Z,21.7
2017-09-28T15:34:05.587Z,21.7
2017-09-28T15:36:05.372Z,21.7
2017-09-28T15:38:15.133Z,21.7
2017-09-28T15:40:05.414Z,21.7
2017-09-28T15:42:07.661Z,21.7
2017-09-28T15:44:05.024Z,21.7
2017-09-28T15:46:04.711Z,21.7
2017-09-28T15:48:05.545Z,21.7
2017-09-28T15:50:12.501Z,21.7
2017-09-28T15:52:04.752Z,21.7
2017-09-28T15:54:05.658Z,21.7
2017-09-28T15:56:04.776Z,21.8
2017-09-28T15:58:05.010Z,21.7
2017-09-28T16:00:04.875Z,21.7
2017-09-28T16:02:04.701Z,21.7
2017-09-28T16:04:05.490Z,21.7
2017-09-28T16:06:05.537Z,21.8
2017-09-28T16:08:07.501Z,21.7
2017-09-28T16:10:06.242Z,21.7
2017-09-28T16:12:05.643Z,21.7
2017-09-28T16:14:05.326Z,21.7
2017-09-28T16:16:05.084Z,21.7
2017-09-28T16:18:05.679Z,21.7
2017-09-28T16:20:05.344Z,21.8
2017-09-28T16:22:05.641Z,21.7
2017-09-28T16:24:10.792Z,21.7
2017-09-28T16:26:08.102Z,21.7
2017-09-28T16:28:05.356Z,21.8
2017-09-28T16:30:07.329Z,21.7
2017-09-28T16:32:10.454Z,21.7
2017-09-28T16:34:05.168Z,21.7
2017-09-28T16:36:07.588Z,21.7
2017-09-28T16:38:07.696Z,21.7
2017-09-28T16:40:04.762Z,21.7
2017-09-28T16:42:07.379Z,21.7
2017-09-28T16:44:05.670Z,21.7
2017-09-28T16:46:05.370Z,21.7
2017-09-28T16:48:05.276Z,21.6
2017-09-28T16:50:04.967Z,21.6
2017-09-28T16:52:04.759Z,21.6
2017-09-28T16:54:05.602Z,21.6
2017-09-28T16:56:08.027Z,21.6
2017-09-28T16:58:04.999Z,21.6
2017-09-28T17:00:04.861Z,21.6
2017-09-28T17:02:05.091Z,21.6
2017-09-28T17:04:04.827Z,21.6
2017-09-28T17:06:05.898Z,21.6
2017-09-28T17:08:04.665Z,21.6
2017-09-28T17:10:05.208Z,21.6
2017-09-28T17:12:07.690Z,21.5
2017-09-28T17:14:08.024Z,21.5
2017-09-28T17:16:04.761Z,21.5
2017-09-28T17:18:10.369Z,21.5
2017-09-28T17:20:10.374Z,21.5
2017-09-28T17:22:05.052Z,21.5
2017-09-28T17:24:04.901Z,21.5
2017-09-28T17:26:12.512Z,21.5
2017-09-28T17:28:05.203Z,21.5
2017-09-28T17:30:07.834Z,21.5
2017-09-28T17:32:05.513Z,21.5
2017-09-28T17:34:05.378Z,21.5
2017-09-28T17:36:05.175Z,21.5
2017-09-28T17:38:05.108Z,21.5
2017-09-28T17:40:06.625Z,21.5
2017-09-28T17:42:04.819Z,21.5
2017-09-28T17:44:05.517Z,21.5
2017-09-28T17:46:08.299Z,21.5
2017-09-28T17:48:10.193Z,21.5
2017-09-28T17:50:05.001Z,21.4
2017-09-28T17:52:05.109Z,21.5
2017-09-28T17:54:18.097Z,21.4
2017-09-28T17:56:05.075Z,21.5
2017-09-28T17:58:05.059Z,21.4
2017-09-28T18:00:05.152Z,21.4
2017-09-28T18:02:05.386Z,21.4
2017-09-28T18:04:04.599Z,21.4
2017-09-28T18:06:04.990Z,21.4
2017-09-28T18:08:09.828Z,21.4
2017-09-28T18:10:08.051Z,21.4
2017-09-28T18:12:04.940Z,21.4
2017-09-28T18:14:05.586Z,21.4
2017-09-28T18:16:10.065Z,21.5
2017-09-28T18:18:05.185Z,21.5
2017-09-28T18:20:05.370Z,21.4
2017-09-28T18:22:05.142Z,21.4
2017-09-28T18:24:05.454Z,21.4
2017-09-28T18:26:05.182Z,21.4
2017-09-28T18:28:07.392Z,21.4
2017-09-28T18:30:09.801Z,21.4
2017-09-28T18:32:05.556Z,21.4
2017-09-28T18:34:05.369Z,21.4
2017-09-28T18:36:10.288Z,21.4
2017-09-28T18:38:04.963Z,21.4
2017-09-28T18:40:12.314Z,21.4
2017-09-28T18:42:05.246Z,21.4
2017-09-28T18:44:05.392Z,21.5
2017-09-28T18:46:08.044Z,21.4
2017-09-28T18:48:05.051Z,21.4
2017-09-28T18:50:04.802Z,21.4
2017-09-28T18:52:05.540Z,21.4
2017-09-28T18:54:04.846Z,21.3
2017-09-28T18:56:05.553Z,21.3
2017-09-28T18:58:07.765Z,21.4
2017-09-28T19:00:05.791Z,21.3
2017-09-28T19:02:11.081Z,21.4
2017-09-28T19:04:07.961Z,21.3
2017-09-28T19:06:05.791Z,21.3
2017-09-28T19:08:04.719Z,21.4
2017-09-28T19:10:08.137Z,21.3
2017-09-28T19:12:05.657Z,21.3
2017-09-28T19:14:04.944Z,21.3
2017-09-28T19:16:04.787Z,21.3
2017-09-28T19:18:09.932Z,21.3
2017-09-28T19:20:04.778Z,21.3
2017-09-28T19:22:04.989Z,21.3
2017-09-28T19:24:07.346Z,21.3
2017-09-28T19:26:10.191Z,21.3
2017-09-28T19:28:04.908Z,21.3
2017-09-28T19:30:04.669Z,21.3
2017-09-28T19:32:05.358Z,21.3
2017-09-28T19:34:15.359Z,21.2
2017-09-28T19:36:06.409Z,21.3
2017-09-28T19:38:05.071Z,21.3
2017-09-28T19:40:04.764Z,21.3
2017-09-28T19:42:05.461Z,21.3
2017-09-28T19:44:05.203Z,21.3
2017-09-28T19:46:07.482Z,21.3
2017-09-28T19:48:05.313Z,21.3
2017-09-28T19:50:05.145Z,21.3
2017-09-28T19:52:07.439Z,21.3
2017-09-28T19:54:05.447Z,21.3
2017-09-28T19:56:05.900Z,21.3
2017-09-28T19:58:07.195Z,21.3
2017-09-28T20:00:10.050Z,21.3
2017-09-28T20:02:05.471Z,21.3
2017-09-28T20:04:05.187Z,21.2
2017-09-28T20:06:05.205Z,21.3
2017-09-28T20:08:05.441Z,21.2
2017-09-28T20:10:05.207Z,21.2
2017-09-28T20:12:04.940Z,21.3
2017-09-28T20:14:14.754Z,21.2
2017-09-28T20:16:05.428Z,21.2
2017-09-28T20:18:05.523Z,21.3
2017-09-28T20:20:07.848Z,21.3
2017-09-28T20:22:08.267Z,21.3
2017-09-28T20:24:08.214Z,21.2
2017-09-28T20:26:07.514Z,21.2
2017-09-28T20:28:05.204Z,21.2
2017-09-28T20:30:05.007Z,21.2
2017-09-28T20:32:05.247Z,21.2
2017-09-28T20:34:05.092Z,21.2
2017-09-28T20:36:05.241Z,21.2
2017-09-28T20:38:05.177Z,21.2
2017-09-28T20:40:07.551Z,21.2
2017-09-28T20:42:05.278Z,21.2
2017-09-28T20:44:04.982Z,21.2
2017-09-28T20:46:04.690Z,21.2
2017-09-28T20:48:05.649Z,21.2
2017-09-28T20:50:05.345Z,21.2
2017-09-28T20:52:05.080Z,21.2
2017-09-28T20:54:05.025Z,21.2
2017-09-28T20:56:04.755Z,21.2
2017-09-28T20:58:07.505Z,21.2
2017-09-28T21:00:07.725Z,21.2
2017-09-28T21:02:05.397Z,21.2
2017-09-28T21:04:05.268Z,21.2
2017-09-28T21:06:05.157Z,21.2
2017-09-28T21:08:04.887Z,21.2
2017-09-28T21:10:08.457Z,21.2
2017-09-28T21:12:05.246Z,21.2
2017-09-28T21:14:04.948Z,21.2
2017-09-28T21:16:09.711Z,21.2
2017-09-28T21:18:05.646Z,21.2
2017-09-28T21:20:05.366Z,21.2
2017-09-28T21:22:05.605Z,21.2
2017-09-28T21:24:07.892Z,21.2
2017-09-28T21:26:05.796Z,21.2
2017-09-28T21:28:08.097Z,21.2
2017-09-28T21:30:04.928Z,21.2
2017-09-28T21:32:05.143Z,21.2
2017-09-28T21:34:05.049Z,21.3
2017-09-28T21:36:07.289Z,21.2
2017-09-28T21:38:04.940Z,21.2
2017-09-28T21:40:05.171Z,21.2
2017-09-28T21:42:05.199Z,21.2
2017-09-28T21:44:04.960Z,21.2
2017-09-28T21:46:04.679Z,21.2
2017-09-28T21:48:06.175Z,21.2
2017-09-28T21:50:04.830Z,21.2
2017-09-28T21:52:08.011Z,21.2
2017-09-28T21:54:05.040Z,21.2
2017-09-28T21:56:04.760Z,21.2
2017-09-28T21:58:05.124Z,21.3
2017-09-28T22:00:17.732Z,21.3
2017-09-28T22:02:05.499Z,21.3
2017-09-28T22:04:05.229Z,21.3
2017-09-28T22:06:10.161Z,21.3
2017-09-28T22:08:07.412Z,21.2
2017-09-28T22:10:10.137Z,21.1
2017-09-28T22:12:05.147Z,21.1
2017-09-28T22:14:04.971Z,21.1
2017-09-28T22:16:05.169Z,21.1
2017-09-28T22:18:10.221Z,21.1
2017-09-28T22:20:05.459Z,21.2
2017-09-28T22:22:05.351Z,21.1
2017-09-28T22:24:05.149Z,21.1
2017-09-28T22:26:14.986Z,21.1
2017-09-28T22:28:04.909Z,21.1
2017-09-28T22:30:10.786Z,21.1
2017-09-28T22:32:05.760Z,21.1
2017-09-28T22:34:04.853Z,21.1
2017-09-28T22:36:05.431Z,21.1
2017-09-28T22:38:04.647Z,21.1
2017-09-28T22:40:05.409Z,21.1
2017-09-28T22:42:07.664Z,21.1
2017-09-28T22:44:07.876Z,21.1
2017-09-28T22:46:05.614Z,21.1
2017-09-28T22:48:05.468Z,21.1
2017-09-28T22:50:04.691Z,21.1
2017-09-28T22:52:05.500Z,21.2
2017-09-28T22:54:04.748Z,21.1
2017-09-28T22:56:05.460Z,21.1
2017-09-28T22:58:05.163Z,21.1
2017-09-28T23:00:04.905Z,21.1
2017-09-28T23:02:05.701Z,21.1
2017-09-28T23:04:05.389Z,21.1
2017-09-28T23:06:05.251Z,21.1
2017-09-28T23:08:04.947Z,21.1
2017-09-28T23:10:05.170Z,21
2017-09-28T23:12:10.164Z,21
2017-09-28T23:14:07.431Z,21
2017-09-28T23:16:05.092Z,21
2017-09-28T23:18:05.549Z,21
2017-09-28T23:20:05.302Z,21.1
2017-09-28T23:22:05.020Z,21
2017-09-28T23:24:10.499Z,21
2017-09-28T23:26:05.212Z,21
2017-09-28T23:28:07.520Z,21.1
2017-09-28T23:30:05.344Z,21
2017-09-28T23:32:05.096Z,21
2017-09-28T23:34:04.934Z,21
2017-09-28T23:36:04.733Z,21.1
2017-09-28T23:38:05.133Z,21
2017-09-28T23:40:07.940Z,21
2017-09-28T23:42:04.963Z,21
2017-09-28T23:44:07.350Z,21
2017-09-28T23:46:05.084Z,21.1
2017-09-28T23:48:05.332Z,21.1
2017-09-28T23:50:05.068Z,21.1
2017-09-28T23:52:07.372Z,21.1
2017-09-28T23:54:05.084Z,21.1
2017-09-28T23:56:04.736Z,21.1
2017-09-28T23:58:05.412Z,21.1
